createdAt,value
2023-05-25T00:01:01.159Z,37.50
2023-05-25T00:03:52.867Z,37.80
2023-05-25T00:06:42.150Z,38.50
2023-05-25T00:09:31.499Z,37.40
2023-05-25T00:12:21.639Z,34.70
2023-05-25T00:15:11.270Z,33.20
2023-05-25T00:18:00.166Z,32.60
2023-05-25T00:20:48.961Z,34.50
2023-05-25T00:23:38.091Z,35.70
2023-05-25T00:26:27.024Z,34.60
2023-05-25T00:29:20.508Z,35.20
2023-05-25T00:32:09.274Z,37.50
2023-05-25T00:34:58.157Z,37.70
2023-05-25T00:37:46.848Z,35.00
2023-05-25T00:40:36.895Z,35.30
2023-05-25T00:43:25.580Z,35.70
2023-05-25T00:46:17.019Z,37.10
2023-05-25T00:49:06.019Z,38.00
2023-05-25T00:51:58.951Z,38.20
2023-05-25T00:54:52.732Z,37.90
2023-05-25T00:57:46.113Z,36.80
2023-05-25T01:00:36.919Z,37.70
2023-05-25T01:03:36.223Z,38.10
2023-05-25T01:06:27.349Z,39.00
2023-05-25T01:09:20.242Z,40.90
2023-05-25T01:12:10.870Z,42.60
2023-05-25T01:15:03.039Z,42.20
2023-05-25T01:17:54.457Z,41.30
2023-05-25T01:20:53.928Z,39.60
2023-05-25T01:23:48.589Z,39.70
2023-05-25T01:26:44.985Z,40.50
2023-05-25T01:29:35.637Z,39.40
2023-05-25T01:32:26.360Z,38.20
2023-05-25T01:35:16.608Z,37.50
2023-05-25T01:38:07.131Z,36.90
2023-05-25T01:40:55.933Z,35.40
2023-05-25T01:43:45.009Z,34.20
2023-05-25T01:46:38.069Z,32.70
2023-05-25T01:49:32.422Z,31.90
2023-05-25T01:52:24.897Z,32.10
2023-05-25T01:55:17.059Z,30.50
2023-05-25T01:58:09.133Z,29.90
2023-05-25T02:01:00.245Z,30.10
2023-05-25T02:03:52.745Z,30.70
2023-05-25T02:06:41.547Z,32.90
2023-05-25T02:09:32.055Z,35.70
2023-05-25T02:12:22.133Z,37.10
2023-05-25T02:15:11.877Z,36.90
2023-05-25T02:18:01.184Z,38.30
2023-05-25T02:20:53.624Z,39.80
2023-05-25T02:23:44.118Z,39.40
2023-05-25T02:26:33.238Z,38.70
2023-05-25T02:29:24.254Z,38.70
2023-05-25T02:32:12.954Z,39.50
2023-05-25T02:35:01.817Z,40.90
2023-05-25T02:37:51.259Z,41.40
2023-05-25T02:40:41.095Z,41.70
2023-05-25T02:43:29.823Z,41.40
2023-05-25T02:46:20.110Z,41.80
2023-05-25T02:49:10.130Z,43.60
2023-05-25T02:51:59.018Z,43.40
2023-05-25T02:54:47.820Z,42.70
2023-05-25T02:57:43.254Z,40.40
2023-05-25T03:00:35.084Z,38.30
2023-05-25T03:03:25.808Z,39.30
2023-05-25T03:06:16.134Z,39.30
2023-05-25T03:09:07.529Z,39.20
2023-05-25T03:11:58.874Z,41.30
2023-05-25T03:14:47.573Z,42.20
2023-05-25T03:17:36.623Z,41.70
2023-05-25T03:20:26.829Z,42.00
2023-05-25T03:23:15.694Z,41.60
2023-05-25T03:26:04.353Z,41.50
2023-05-25T03:28:54.870Z,41.90
2023-05-25T03:31:43.755Z,42.30
2023-05-25T03:34:34.733Z,41.50
2023-05-25T03:37:26.095Z,41.10
2023-05-25T03:40:15.089Z,42.30
2023-05-25T03:43:04.166Z,44.40
2023-05-25T03:45:52.966Z,42.60
2023-05-25T03:48:41.637Z,39.90
2023-05-25T03:51:30.382Z,38.00
2023-05-25T03:54:20.688Z,37.30
2023-05-25T03:57:10.460Z,37.70
2023-05-25T03:59:59.478Z,39.10
2023-05-25T04:02:48.181Z,41.20
2023-05-25T04:05:38.701Z,44.40
2023-05-25T04:08:29.915Z,44.60
2023-05-25T04:11:22.768Z,42.30
2023-05-25T04:14:11.588Z,41.00
2023-05-25T04:17:02.795Z,38.80
2023-05-25T04:19:51.550Z,37.30
2023-05-25T04:22:40.633Z,36.20
2023-05-25T04:25:29.918Z,37.60
2023-05-25T04:28:21.561Z,38.40
2023-05-25T04:31:18.940Z,38.30
2023-05-25T04:34:29.715Z,37.70
2023-05-25T04:37:36.993Z,37.70
2023-05-25T04:40:28.059Z,37.30
2023-05-25T04:43:18.382Z,37.40
2023-05-25T04:46:09.100Z,37.10
2023-05-25T04:48:58.146Z,37.10
2023-05-25T04:51:47.624Z,37.40
2023-05-25T04:54:37.011Z,36.60
2023-05-25T04:57:28.073Z,36.30
2023-05-25T05:00:18.148Z,36.30
2023-05-25T05:03:11.326Z,36.30
2023-05-25T05:06:00.195Z,37.00
2023-05-25T05:08:51.832Z,36.90
2023-05-25T05:11:40.817Z,37.80
2023-05-25T05:14:30.552Z,37.30
2023-05-25T05:17:19.394Z,37.50
2023-05-25T05:20:10.878Z,38.00
2023-05-25T05:23:00.552Z,37.70
2023-05-25T05:25:49.753Z,37.60
2023-05-25T05:28:40.029Z,37.60
2023-05-25T05:31:29.603Z,37.60
2023-05-25T05:34:18.487Z,37.20
2023-05-25T05:37:10.575Z,37.20
2023-05-25T05:40:01.098Z,37.70
2023-05-25T05:42:49.773Z,36.70
2023-05-25T05:45:38.621Z,36.20
2023-05-25T05:48:27.253Z,36.20
2023-05-25T05:51:16.563Z,36.60
2023-05-25T05:54:07.163Z,36.50
2023-05-25T05:56:56.068Z,35.10
2023-05-25T05:59:44.934Z,34.80
2023-05-25T06:02:33.803Z,35.20
2023-05-25T06:05:23.552Z,35.10
2023-05-25T06:08:14.799Z,36.40
2023-05-25T06:11:04.899Z,34.80
2023-05-25T06:13:53.557Z,34.80
2023-05-25T06:16:43.735Z,35.00
2023-05-25T06:19:32.627Z,35.00
2023-05-25T06:22:22.150Z,36.30
2023-05-25T06:25:14.371Z,35.60
2023-05-25T06:28:04.715Z,35.20
2023-05-25T06:30:53.406Z,34.60
2023-05-25T06:33:42.756Z,35.40
2023-05-25T06:36:32.662Z,35.70
2023-05-25T06:39:21.969Z,33.80
2023-05-25T06:42:13.143Z,33.50
2023-05-25T06:45:14.522Z,32.80
2023-05-25T06:48:05.043Z,32.50
2023-05-25T06:50:54.377Z,31.90
2023-05-25T06:53:43.743Z,32.00
2023-05-25T06:56:32.569Z,30.80
2023-05-25T06:59:21.316Z,30.80
2023-05-25T07:02:11.837Z,30.20
2023-05-25T07:05:01.432Z,29.70
2023-05-25T07:07:50.145Z,29.70
2023-05-25T07:10:38.890Z,28.70
2023-05-25T07:13:27.622Z,28.50
2023-05-25T07:16:16.695Z,29.10
2023-05-25T07:19:06.792Z,29.00
2023-05-25T07:21:55.509Z,26.70
2023-05-25T07:24:44.210Z,26.70
2023-05-25T07:27:33.886Z,27.10
2023-05-25T07:30:23.635Z,26.90
2023-05-25T07:33:17.794Z,27.10
2023-05-25T07:36:09.925Z,26.80
2023-05-25T07:38:59.566Z,27.40
2023-05-25T07:41:48.318Z,25.80
2023-05-25T07:44:37.039Z,26.50
2023-05-25T07:47:26.942Z,27.70
2023-05-25T07:50:16.420Z,26.40
2023-05-25T07:53:06.515Z,26.20
2023-05-25T07:55:55.818Z,26.90
2023-05-25T07:58:44.473Z,26.20
2023-05-25T08:01:33.172Z,25.30
2023-05-25T08:04:22.269Z,27.50
2023-05-25T08:07:11.572Z,25.60
2023-05-25T08:10:02.761Z,24.70
2023-05-25T08:12:52.709Z,25.70
2023-05-25T08:15:41.486Z,25.20
2023-05-25T08:18:31.476Z,25.80
2023-05-25T08:21:20.774Z,24.60
2023-05-25T08:24:09.449Z,23.80
2023-05-25T08:27:01.241Z,26.10
2023-05-25T08:29:50.980Z,24.90
2023-05-25T08:32:39.723Z,25.50
2023-05-25T08:35:29.356Z,25.00
2023-05-25T08:38:18.093Z,24.90
2023-05-25T08:41:08.292Z,24.50
2023-05-25T08:43:58.485Z,24.00
2023-05-25T08:46:49.869Z,24.60
2023-05-25T08:49:41.798Z,23.90
2023-05-25T08:52:33.469Z,24.40
2023-05-25T08:55:23.852Z,22.90
2023-05-25T08:58:18.271Z,24.10
2023-05-25T09:01:12.168Z,24.30
2023-05-25T09:04:02.382Z,23.00
2023-05-25T09:07:05.685Z,24.10
2023-05-25T09:10:01.184Z,23.00
2023-05-25T09:12:51.717Z,23.30
2023-05-25T09:15:40.772Z,24.50
2023-05-25T09:18:32.476Z,24.40
2023-05-25T09:21:21.239Z,22.50
2023-05-25T09:24:10.617Z,22.50
2023-05-25T09:26:59.290Z,22.20
2023-05-25T09:29:51.957Z,22.20
2023-05-25T09:32:41.000Z,22.80
2023-05-25T09:35:31.748Z,21.30
2023-05-25T09:38:20.820Z,22.50
2023-05-25T09:41:10.348Z,22.50
2023-05-25T09:44:10.591Z,22.90
2023-05-25T09:47:01.010Z,22.40
2023-05-25T09:49:50.722Z,20.10
2023-05-25T09:52:41.070Z,20.10
2023-05-25T09:55:40.418Z,21.10
2023-05-25T09:58:39.384Z,21.60
2023-05-25T10:01:28.955Z,22.20
2023-05-25T10:04:17.916Z,19.00
2023-05-25T10:07:08.089Z,21.40
2023-05-25T10:10:07.303Z,20.20
2023-05-25T10:12:57.579Z,20.30
2023-05-25T10:15:49.070Z,20.50
2023-05-25T10:18:45.073Z,20.50
2023-05-25T10:21:36.899Z,19.10
2023-05-25T10:24:32.925Z,19.30
2023-05-25T10:27:27.578Z,20.00
2023-05-25T10:30:16.994Z,19.50
2023-05-25T10:33:07.395Z,19.90
2023-05-25T10:36:09.540Z,20.80
2023-05-25T10:38:59.859Z,20.60
2023-05-25T10:41:49.453Z,19.00
2023-05-25T10:44:40.066Z,18.80
2023-05-25T10:47:29.251Z,18.60
2023-05-25T10:50:23.115Z,18.10
2023-05-25T10:53:14.680Z,19.60
2023-05-25T10:56:07.452Z,19.30
2023-05-25T10:58:56.908Z,18.00
2023-05-25T11:01:52.900Z,18.30
2023-05-25T11:04:42.574Z,18.20
2023-05-25T11:07:31.600Z,18.20
2023-05-25T11:10:43.960Z,16.40
2023-05-25T11:13:40.399Z,18.20
2023-05-25T11:16:36.362Z,18.70
2023-05-25T11:19:39.642Z,18.60
2023-05-25T11:22:33.191Z,18.00
2023-05-25T11:25:39.469Z,16.70
2023-05-25T11:28:32.449Z,17.50
2023-05-25T11:31:30.172Z,17.40
2023-05-25T11:34:21.871Z,16.50
2023-05-25T11:37:12.819Z,16.50
2023-05-25T11:40:01.531Z,17.40
2023-05-25T11:42:52.761Z,16.60
2023-05-25T11:45:41.531Z,16.60
2023-05-25T11:48:32.068Z,17.50
2023-05-25T11:51:23.100Z,16.70
2023-05-25T11:54:23.134Z,17.00
2023-05-25T11:57:16.463Z,16.70
2023-05-25T12:00:10.257Z,15.50
2023-05-25T12:03:02.281Z,16.40
2023-05-25T12:05:51.424Z,17.20
2023-05-25T12:08:43.459Z,15.70
2023-05-25T12:11:38.249Z,15.90
2023-05-25T12:14:27.376Z,17.20
2023-05-25T12:17:16.947Z,15.40
2023-05-25T12:20:07.824Z,15.30
2023-05-25T12:22:56.900Z,14.80
2023-05-25T12:25:50.783Z,17.20
2023-05-25T12:28:41.973Z,16.10
2023-05-25T12:31:31.925Z,15.70
2023-05-25T12:34:22.231Z,16.40
2023-05-25T12:37:19.961Z,15.00
2023-05-25T12:40:20.426Z,14.40
2023-05-25T12:43:11.416Z,15.10
2023-05-25T12:46:01.852Z,14.60
2023-05-25T12:48:50.872Z,17.30
2023-05-25T12:51:40.256Z,15.60
2023-05-25T12:54:41.203Z,16.40
2023-05-25T12:57:36.511Z,15.60
2023-05-25T13:00:27.457Z,15.20
2023-05-25T13:03:20.137Z,14.60
2023-05-25T13:06:09.130Z,15.20
2023-05-25T13:08:57.733Z,15.90
2023-05-25T13:11:46.531Z,15.80
2023-05-25T13:14:37.173Z,17.70
2023-05-25T13:17:25.958Z,14.60
2023-05-25T13:20:17.194Z,15.10
2023-05-25T13:23:06.600Z,16.30
2023-05-25T13:25:55.372Z,14.50
2023-05-25T13:28:44.074Z,17.00
2023-05-25T13:31:32.816Z,13.70
2023-05-25T13:34:21.596Z,15.10
2023-05-25T13:37:11.993Z,14.30
2023-05-25T13:40:01.203Z,16.40
2023-05-25T13:42:49.976Z,15.00
2023-05-25T13:45:40.164Z,15.80
2023-05-25T13:48:29.990Z,15.10
2023-05-25T13:51:19.065Z,16.10
2023-05-25T13:54:09.188Z,15.00
2023-05-25T13:56:57.891Z,15.80
2023-05-25T13:59:46.588Z,14.10
2023-05-25T14:02:35.836Z,14.70
2023-05-25T14:05:26.402Z,15.20
2023-05-25T14:08:15.781Z,15.10
2023-05-25T14:11:06.008Z,15.20
2023-05-25T14:13:54.771Z,15.80
2023-05-25T14:16:43.432Z,16.50
2023-05-25T14:19:32.976Z,16.50
2023-05-25T14:22:21.812Z,16.20
2023-05-25T14:25:10.859Z,14.90
2023-05-25T14:28:01.560Z,16.40
2023-05-25T14:30:51.453Z,14.50
2023-05-25T14:33:42.835Z,15.40
2023-05-25T14:36:31.904Z,16.30
2023-05-25T14:39:20.697Z,15.10
2023-05-25T14:42:10.035Z,17.40
2023-05-25T14:45:00.046Z,14.30
2023-05-25T14:47:49.089Z,15.90
2023-05-25T14:50:38.849Z,16.00
2023-05-25T14:53:28.507Z,14.40
2023-05-25T14:56:20.205Z,17.10
2023-05-25T14:59:09.027Z,16.70
2023-05-25T15:01:59.157Z,17.70
2023-05-25T15:04:48.132Z,16.80
2023-05-25T15:07:37.049Z,16.50
2023-05-25T15:10:25.882Z,17.20
2023-05-25T15:13:14.485Z,15.90
2023-05-25T15:16:04.798Z,16.80
2023-05-25T15:18:54.928Z,14.80
2023-05-25T15:21:43.758Z,16.00
2023-05-25T15:24:32.508Z,16.50
2023-05-25T15:27:23.154Z,18.10
2023-05-25T15:30:12.652Z,17.50
2023-05-25T15:33:02.130Z,16.70
2023-05-25T15:35:52.295Z,17.60
2023-05-25T15:38:43.079Z,16.50
2023-05-25T15:41:31.785Z,16.30
2023-05-25T15:44:21.337Z,15.80
2023-05-25T15:47:10.298Z,16.10
2023-05-25T15:49:59.113Z,17.40
2023-05-25T15:52:49.334Z,16.20
2023-05-25T15:55:38.006Z,16.20
2023-05-25T15:58:26.752Z,17.20
2023-05-25T16:01:15.545Z,17.50
2023-05-25T16:04:04.968Z,16.40
2023-05-25T16:06:53.864Z,17.20
2023-05-25T16:09:44.004Z,16.60
2023-05-25T16:12:32.754Z,17.40
2023-05-25T16:15:22.943Z,17.60
2023-05-25T16:18:11.602Z,16.80
2023-05-25T16:21:00.821Z,15.70
2023-05-25T16:23:49.542Z,17.60
2023-05-25T16:26:39.878Z,16.80
2023-05-25T16:29:28.597Z,17.30
2023-05-25T16:32:19.219Z,17.40
2023-05-25T16:35:08.750Z,16.80
2023-05-25T16:37:57.432Z,15.70
2023-05-25T16:40:46.069Z,17.30
2023-05-25T16:43:36.213Z,17.20
2023-05-25T16:46:26.319Z,16.60
2023-05-25T16:49:15.059Z,16.80
2023-05-25T16:52:03.728Z,17.20
2023-05-25T16:54:52.410Z,16.90
2023-05-25T16:57:41.748Z,17.10
2023-05-25T17:00:32.046Z,17.20
2023-05-25T17:03:20.926Z,17.00
2023-05-25T17:06:10.182Z,16.80
2023-05-25T17:08:58.925Z,17.80
2023-05-25T17:11:47.592Z,18.10
2023-05-25T17:14:37.185Z,18.10
2023-05-25T17:17:28.175Z,17.50
2023-05-25T17:20:17.347Z,17.00
2023-05-25T17:23:06.247Z,16.80
2023-05-25T17:25:54.924Z,18.30
2023-05-25T17:28:43.684Z,19.10
2023-05-25T17:31:32.501Z,18.20
2023-05-25T17:34:23.527Z,16.80
2023-05-25T17:37:12.367Z,18.20
2023-05-25T17:40:01.065Z,18.60
2023-05-25T17:42:49.831Z,18.30
2023-05-25T17:45:38.845Z,19.00
2023-05-25T17:48:27.817Z,19.20
2023-05-25T17:51:18.571Z,19.20
2023-05-25T17:54:07.393Z,18.10
2023-05-25T17:56:56.506Z,19.40
2023-05-25T17:59:45.897Z,19.30
2023-05-25T18:02:34.835Z,19.90
2023-05-25T18:05:23.790Z,19.40
2023-05-25T18:08:14.389Z,18.80
2023-05-25T18:11:03.577Z,18.30
2023-05-25T18:13:52.499Z,18.50
2023-05-25T18:16:42.460Z,17.20
2023-05-25T18:19:31.272Z,18.50
2023-05-25T18:22:20.113Z,19.50
2023-05-25T18:25:10.850Z,19.80
2023-05-25T18:27:59.578Z,20.30
2023-05-25T18:30:48.334Z,17.40
2023-05-25T18:33:41.242Z,17.40
2023-05-25T18:36:29.987Z,17.20
2023-05-25T18:39:18.745Z,17.00
2023-05-25T18:42:09.358Z,18.20
2023-05-25T18:44:58.138Z,17.10
2023-05-25T18:47:47.193Z,16.90
2023-05-25T18:50:36.110Z,17.60
2023-05-25T18:53:24.832Z,17.50
2023-05-25T18:56:13.516Z,16.90
2023-05-25T18:59:04.037Z,17.80
2023-05-25T19:01:53.007Z,19.10
2023-05-25T19:04:41.769Z,19.50
2023-05-25T19:07:30.456Z,18.10
2023-05-25T19:10:19.417Z,19.30
2023-05-25T19:13:08.711Z,17.70
2023-05-25T19:15:58.834Z,17.50
2023-05-25T19:18:47.756Z,18.10
2023-05-25T19:21:36.656Z,18.20
2023-05-25T19:24:25.331Z,18.80
2023-05-25T19:27:14.083Z,19.20
2023-05-25T19:30:03.952Z,19.00
2023-05-25T19:32:54.074Z,19.10
2023-05-25T19:35:43.024Z,20.60
2023-05-25T19:38:41.262Z,20.50
2023-05-25T19:41:30.816Z,20.90
2023-05-25T19:44:19.537Z,21.90
2023-05-25T19:47:08.696Z,21.40
2023-05-25T19:49:58.822Z,22.20
2023-05-25T19:52:47.859Z,22.90
2023-05-25T19:55:37.768Z,22.60
2023-05-25T19:58:26.508Z,23.10
2023-05-25T20:01:15.321Z,23.30
2023-05-25T20:04:04.606Z,22.80
2023-05-25T20:06:54.702Z,23.10
2023-05-25T20:09:44.421Z,23.40
2023-05-25T20:12:33.213Z,23.80
2023-05-25T20:15:21.956Z,25.50
2023-05-25T20:18:10.738Z,25.80
2023-05-25T20:21:01.756Z,26.30
2023-05-25T20:23:51.888Z,26.70
2023-05-25T20:26:40.732Z,26.90
2023-05-25T20:29:29.536Z,26.60
2023-05-25T20:32:18.341Z,26.20
2023-05-25T20:35:07.759Z,26.10
2023-05-25T20:37:56.412Z,25.70
2023-05-25T20:40:46.653Z,26.40
2023-05-25T20:43:37.087Z,26.70
2023-05-25T20:46:27.085Z,27.40
2023-05-25T20:49:15.901Z,27.60
2023-05-25T20:52:04.886Z,29.30
2023-05-25T20:54:53.644Z,29.90
2023-05-25T20:57:45.717Z,30.50
2023-05-25T21:00:34.515Z,30.60
2023-05-25T21:03:23.429Z,31.00
2023-05-25T21:06:12.269Z,32.50
2023-05-25T21:09:01.664Z,31.70
2023-05-25T21:11:50.353Z,31.20
2023-05-25T21:14:40.598Z,30.60
2023-05-25T21:17:29.706Z,31.10
2023-05-25T21:20:19.254Z,30.90
2023-05-25T21:23:08.761Z,30.90
2023-05-25T21:25:57.595Z,30.00
2023-05-25T21:28:46.418Z,29.90
2023-05-25T21:31:36.808Z,29.20
2023-05-25T21:34:25.761Z,29.10
2023-05-25T21:37:17.472Z,28.60
2023-05-25T21:40:07.311Z,28.40
2023-05-25T21:42:56.210Z,28.50
2023-05-25T21:45:45.141Z,28.00
2023-05-25T21:48:35.500Z,27.60
2023-05-25T21:51:24.322Z,27.20
2023-05-25T21:54:13.268Z,28.10
2023-05-25T21:57:01.919Z,28.70
2023-05-25T21:59:50.708Z,28.90
2023-05-25T22:02:39.932Z,28.80
2023-05-25T22:05:34.677Z,28.80
2023-05-25T22:08:23.498Z,29.80
2023-05-25T22:11:12.375Z,31.40
2023-05-25T22:14:03.037Z,32.90
2023-05-25T22:16:51.982Z,33.80
2023-05-25T22:19:41.854Z,33.70
2023-05-25T22:22:33.406Z,35.10
2023-05-25T22:25:23.552Z,35.10
2023-05-25T22:28:12.309Z,35.20
2023-05-25T22:31:01.186Z,35.80
2023-05-25T22:33:49.942Z,36.40
2023-05-25T22:36:39.044Z,37.00
2023-05-25T22:39:29.321Z,37.10
2023-05-25T22:42:17.902Z,36.70
2023-05-25T22:45:07.693Z,36.80
2023-05-25T22:47:56.474Z,37.10
2023-05-25T22:50:45.288Z,38.00
2023-05-25T22:53:33.935Z,38.60
2023-05-25T22:56:24.172Z,38.70
2023-05-25T22:59:13.090Z,38.70
2023-05-25T23:02:01.854Z,38.80
2023-05-25T23:04:50.630Z,38.70
2023-05-25T23:07:39.382Z,38.80
2023-05-25T23:10:28.211Z,38.70
2023-05-25T23:13:19.589Z,39.30
2023-05-25T23:16:08.440Z,39.20
2023-05-25T23:18:57.620Z,39.30
2023-05-25T23:21:46.382Z,39.20
2023-05-25T23:24:35.049Z,39.90
2023-05-25T23:27:23.960Z,40.00
2023-05-25T23:30:14.899Z,39.60
2023-05-25T23:33:03.747Z,39.50
2023-05-25T23:35:52.529Z,39.90
2023-05-25T23:38:41.163Z,40.30
2023-05-25T23:41:29.793Z,39.30
2023-05-25T23:44:18.498Z,38.90
2023-05-25T23:47:09.134Z,39.30
2023-05-25T23:49:58.631Z,40.40
2023-05-25T23:52:47.501Z,40.70
2023-05-25T23:55:36.531Z,40.20
2023-05-25T23:58:25.524Z,41.00
